Aviation Digital Data Service (ADDS)

Output produced by METARs form (2026 UTC 20 July 2017)
found at http://www.aviationweather.gov/adds/metars/
 
METAR text: KSAR 202015Z AUTO 21006KT 7SM CLR 35/23 A3004 RMK AO2 T03510226
Conditions at: KSAR (SPARTA , IL, US) observed 2015 UTC 20 July 2017
Temperature: 35.1°C (95°F)
Dewpoint: 22.6°C (73°F) [RH = 49%]
Pressure (altimeter): 30.04 inches Hg (1017.4 mb)
Winds: from the SSW (210 degrees) at 7 MPH (6 knots; 3.1 m/s)
Visibility: 7 miles (11 km)
Ceiling: at least 12,000 feet AGL
Clouds: sky clear below 12,000 feet AGL
Weather: automated observation with no human augmentation;
there may or may not be significant weather present at this time